sensor_id;sensor_type;location;lat;lon;timestamp;temperature;humidity
64599;SHT31;51008;51.504;11.548;2022-07-11T00:03:18;11.87;86.43
64599;SHT31;51008;51.504;11.548;2022-07-11T00:08:19;11.81;86.49
64599;SHT31;51008;51.504;11.548;2022-07-11T00:13:20;11.70;86.67
64599;SHT31;51008;51.504;11.548;2022-07-11T00:18:21;11.69;86.87
64599;SHT31;51008;51.504;11.548;2022-07-11T00:23:22;11.66;86.93
64599;SHT31;51008;51.504;11.548;2022-07-11T00:28:23;11.67;87.53
64599;SHT31;51008;51.504;11.548;2022-07-11T00:33:24;11.66;87.65
64599;SHT31;51008;51.504;11.548;2022-07-11T00:38:25;11.67;87.88
64599;SHT31;51008;51.504;11.548;2022-07-11T00:43:35;11.65;87.88
64599;SHT31;51008;51.504;11.548;2022-07-11T00:48:36;11.56;87.82
64599;SHT31;51008;51.504;11.548;2022-07-11T00:53:38;11.49;88.31
64599;SHT31;51008;51.504;11.548;2022-07-11T00:58:39;11.49;88.05
64599;SHT31;51008;51.504;11.548;2022-07-11T01:03:41;11.43;87.43
64599;SHT31;51008;51.504;11.548;2022-07-11T01:08:43;11.35;87.36
64599;SHT31;51008;51.504;11.548;2022-07-11T01:13:45;11.22;87.73
64599;SHT31;51008;51.504;11.548;2022-07-11T01:18:51;11.17;87.78
64599;SHT31;51008;51.504;11.548;2022-07-11T01:23:54;11.07;87.56
64599;SHT31;51008;51.504;11.548;2022-07-11T01:29:05;11.01;87.55
64599;SHT31;51008;51.504;11.548;2022-07-11T01:34:06;10.96;87.79
64599;SHT31;51008;51.504;11.548;2022-07-11T01:39:07;10.89;88.98
64599;SHT31;51008;51.504;11.548;2022-07-11T01:44:08;10.84;90.34
64599;SHT31;51008;51.504;11.548;2022-07-11T01:49:09;10.81;90.39
64599;SHT31;51008;51.504;11.548;2022-07-11T01:54:10;10.79;91.07
64599;SHT31;51008;51.504;11.548;2022-07-11T01:59:11;10.77;90.84
64599;SHT31;51008;51.504;11.548;2022-07-11T02:04:12;10.69;91.40
64599;SHT31;51008;51.504;11.548;2022-07-11T02:09:13;10.70;91.32
64599;SHT31;51008;51.504;11.548;2022-07-11T02:14:14;10.73;91.52
64599;SHT31;51008;51.504;11.548;2022-07-11T02:19:15;10.80;92.38
64599;SHT31;51008;51.504;11.548;2022-07-11T02:24:16;10.90;92.48
64599;SHT31;51008;51.504;11.548;2022-07-11T02:29:17;10.87;91.83
64599;SHT31;51008;51.504;11.548;2022-07-11T02:34:18;10.83;91.45
64599;SHT31;51008;51.504;11.548;2022-07-11T02:39:19;10.79;91.70
64599;SHT31;51008;51.504;11.548;2022-07-11T02:44:20;10.80;92.14
64599;SHT31;51008;51.504;11.548;2022-07-11T02:49:21;10.81;92.47
64599;SHT31;51008;51.504;11.548;2022-07-11T02:54:22;10.86;92.34
64599;SHT31;51008;51.504;11.548;2022-07-11T02:59:23;10.94;92.49
64599;SHT31;51008;51.504;11.548;2022-07-11T03:04:25;11.00;92.78
64599;SHT31;51008;51.504;11.548;2022-07-11T03:09:26;11.04;92.39
64599;SHT31;51008;51.504;11.548;2022-07-11T03:14:28;10.96;92.13
64599;SHT31;51008;51.504;11.548;2022-07-11T03:19:29;10.92;91.72
64599;SHT31;51008;51.504;11.548;2022-07-11T03:24:30;10.93;91.50
64599;SHT31;51008;51.504;11.548;2022-07-11T03:29:31;11.07;91.77
64599;SHT31;51008;51.504;11.548;2022-07-11T03:34:32;11.22;91.81
64599;SHT31;51008;51.504;11.548;2022-07-11T03:39:33;11.35;91.96
64599;SHT31;51008;51.504;11.548;2022-07-11T03:44:34;11.55;91.64
64599;SHT31;51008;51.504;11.548;2022-07-11T03:49:35;11.76;91.38
64599;SHT31;51008;51.504;11.548;2022-07-11T03:54:36;11.97;90.61
64599;SHT31;51008;51.504;11.548;2022-07-11T03:59:37;12.05;90.17
64599;SHT31;51008;51.504;11.548;2022-07-11T04:04:38;12.13;89.99
64599;SHT31;51008;51.504;11.548;2022-07-11T04:09:39;12.24;90.12
64599;SHT31;51008;51.504;11.548;2022-07-11T04:14:40;12.29;90.01
64599;SHT31;51008;51.504;11.548;2022-07-11T04:19:42;12.31;89.87
64599;SHT31;51008;51.504;11.548;2022-07-11T04:24:43;12.63;90.28
64599;SHT31;51008;51.504;11.548;2022-07-11T04:29:44;12.86;89.52
64599;SHT31;51008;51.504;11.548;2022-07-11T04:34:45;13.11;88.82
64599;SHT31;51008;51.504;11.548;2022-07-11T04:39:46;13.74;88.34
64599;SHT31;51008;51.504;11.548;2022-07-11T04:44:47;14.39;86.00
64599;SHT31;51008;51.504;11.548;2022-07-11T04:49:48;14.95;83.32
64599;SHT31;51008;51.504;11.548;2022-07-11T04:54:49;15.49;82.06
64599;SHT31;51008;51.504;11.548;2022-07-11T04:59:50;16.00;80.15
64599;SHT31;51008;51.504;11.548;2022-07-11T05:04:51;16.26;79.02
64599;SHT31;51008;51.504;11.548;2022-07-11T05:09:52;16.49;77.90
64599;SHT31;51008;51.504;11.548;2022-07-11T05:14:53;16.59;77.38
64599;SHT31;51008;51.504;11.548;2022-07-11T05:19:54;15.95;78.11
64599;SHT31;51008;51.504;11.548;2022-07-11T05:24:55;15.68;79.54
64599;SHT31;51008;51.504;11.548;2022-07-11T05:29:56;15.80;79.90
64599;SHT31;51008;51.504;11.548;2022-07-11T05:34:57;15.57;78.85
64599;SHT31;51008;51.504;11.548;2022-07-11T05:39:58;15.44;79.41
64599;SHT31;51008;51.504;11.548;2022-07-11T05:44:59;15.40;79.64
64599;SHT31;51008;51.504;11.548;2022-07-11T05:50:00;15.40;78.93
64599;SHT31;51008;51.504;11.548;2022-07-11T05:55:02;15.54;79.33
64599;SHT31;51008;51.504;11.548;2022-07-11T06:00:03;15.60;78.61
64599;SHT31;51008;51.504;11.548;2022-07-11T06:05:10;15.84;79.16
64599;SHT31;51008;51.504;11.548;2022-07-11T06:10:11;15.64;77.74
64599;SHT31;51008;51.504;11.548;2022-07-11T06:15:12;15.47;78.42
64599;SHT31;51008;51.504;11.548;2022-07-11T06:20:13;15.49;78.59
64599;SHT31;51008;51.504;11.548;2022-07-11T06:25:15;15.26;78.28
64599;SHT31;51008;51.504;11.548;2022-07-11T06:30:16;15.47;79.64
64599;SHT31;51008;51.504;11.548;2022-07-11T06:35:17;15.70;77.82
64599;SHT31;51008;51.504;11.548;2022-07-11T06:40:18;16.08;76.36
64599;SHT31;51008;51.504;11.548;2022-07-11T06:45:19;16.96;71.61
64599;SHT31;51008;51.504;11.548;2022-07-11T06:50:20;17.49;69.74
64599;SHT31;51008;51.504;11.548;2022-07-11T06:55:21;17.60;68.00
64599;SHT31;51008;51.504;11.548;2022-07-11T07:00:22;18.10;70.48
64599;SHT31;51008;51.504;11.548;2022-07-11T07:05:24;18.56;68.85
64599;SHT31;51008;51.504;11.548;2022-07-11T07:10:25;18.34;67.67
64599;SHT31;51008;51.504;11.548;2022-07-11T07:15:26;18.06;68.16
64599;SHT31;51008;51.504;11.548;2022-07-11T07:20:27;17.60;68.93
64599;SHT31;51008;51.504;11.548;2022-07-11T07:25:28;17.35;69.65
64599;SHT31;51008;51.504;11.548;2022-07-11T07:30:30;17.11;70.22
64599;SHT31;51008;51.504;11.548;2022-07-11T07:35:31;17.44;70.22
64599;SHT31;51008;51.504;11.548;2022-07-11T07:40:32;17.60;69.33
64599;SHT31;51008;51.504;11.548;2022-07-11T07:45:33;17.55;69.41
64599;SHT31;51008;51.504;11.548;2022-07-11T07:50:34;17.82;68.08
64599;SHT31;51008;51.504;11.548;2022-07-11T07:55:35;18.25;65.48
64599;SHT31;51008;51.504;11.548;2022-07-11T08:00:36;18.56;64.84
64599;SHT31;51008;51.504;11.548;2022-07-11T08:05:37;18.58;62.14
64599;SHT31;51008;51.504;11.548;2022-07-11T08:10:38;18.49;62.90
64599;SHT31;51008;51.504;11.548;2022-07-11T08:15:39;19.44;60.08
64599;SHT31;51008;51.504;11.548;2022-07-11T08:20:40;20.47;57.24
64599;SHT31;51008;51.504;11.548;2022-07-11T08:25:41;21.29;55.92
64599;SHT31;51008;51.504;11.548;2022-07-11T08:30:43;20.85;55.40
64599;SHT31;51008;51.504;11.548;2022-07-11T08:35:44;21.23;53.86
64599;SHT31;51008;51.504;11.548;2022-07-11T08:40:45;21.12;54.84
64599;SHT31;51008;51.504;11.548;2022-07-11T08:45:46;20.74;52.88
64599;SHT31;51008;51.504;11.548;2022-07-11T08:50:49;21.43;53.08
64599;SHT31;51008;51.504;11.548;2022-07-11T08:55:51;21.57;51.51
64599;SHT31;51008;51.504;11.548;2022-07-11T09:00:52;22.02;51.21
64599;SHT31;51008;51.504;11.548;2022-07-11T09:05:53;21.62;49.04
64599;SHT31;51008;51.504;11.548;2022-07-11T09:10:54;22.48;49.08
64599;SHT31;51008;51.504;11.548;2022-07-11T09:16:01;22.01;49.05
64599;SHT31;51008;51.504;11.548;2022-07-11T09:21:15;22.26;50.55
64599;SHT31;51008;51.504;11.548;2022-07-11T09:26:15;22.72;48.27
64599;SHT31;51008;51.504;11.548;2022-07-11T09:31:17;22.87;46.29
64599;SHT31;51008;51.504;11.548;2022-07-11T09:36:33;22.36;46.93
64599;SHT31;51008;51.504;11.548;2022-07-11T09:41:36;22.92;48.58
64599;SHT31;51008;51.504;11.548;2022-07-11T09:46:38;22.26;45.56
64599;SHT31;51008;51.504;11.548;2022-07-11T09:51:40;22.21;47.19
64599;SHT31;51008;51.504;11.548;2022-07-11T09:56:43;22.57;45.78
64599;SHT31;51008;51.504;11.548;2022-07-11T10:01:44;22.72;45.75
64599;SHT31;51008;51.504;11.548;2022-07-11T10:06:46;22.32;45.98
64599;SHT31;51008;51.504;11.548;2022-07-11T10:11:47;22.44;46.72
64599;SHT31;51008;51.504;11.548;2022-07-11T10:16:58;23.93;47.77
64599;SHT31;51008;51.504;11.548;2022-07-11T10:22:35;24.05;42.21
64599;SHT31;51008;51.504;11.548;2022-07-11T10:32:58;22.99;44.82
64599;SHT31;51008;51.504;11.548;2022-07-11T10:38:04;23.89;42.81
64599;SHT31;51008;51.504;11.548;2022-07-11T10:43:05;23.98;39.73
64599;SHT31;51008;51.504;11.548;2022-07-11T10:48:10;24.09;40.65
64599;SHT31;51008;51.504;11.548;2022-07-11T10:53:22;24.05;40.82
64599;SHT31;51008;51.504;11.548;2022-07-11T10:58:30;24.43;42.44
64599;SHT31;51008;51.504;11.548;2022-07-11T11:03:31;25.35;39.12
64599;SHT31;51008;51.504;11.548;2022-07-11T11:13:35;24.58;39.27
64599;SHT31;51008;51.504;11.548;2022-07-11T11:18:36;24.90;39.50
64599;SHT31;51008;51.504;11.548;2022-07-11T11:23:43;25.44;39.13
64599;SHT31;51008;51.504;11.548;2022-07-11T11:29:02;24.85;40.23
64599;SHT31;51008;51.504;11.548;2022-07-11T11:34:04;24.53;41.58
64599;SHT31;51008;51.504;11.548;2022-07-11T11:39:05;24.79;40.46
64599;SHT31;51008;51.504;11.548;2022-07-11T11:44:06;25.26;40.94
64599;SHT31;51008;51.504;11.548;2022-07-11T11:49:07;24.53;40.68
64599;SHT31;51008;51.504;11.548;2022-07-11T11:54:08;25.13;38.18
64599;SHT31;51008;51.504;11.548;2022-07-11T11:59:09;25.24;39.17
64599;SHT31;51008;51.504;11.548;2022-07-11T12:04:13;25.35;38.33
64599;SHT31;51008;51.504;11.548;2022-07-11T12:09:16;25.19;39.19
64599;SHT31;51008;51.504;11.548;2022-07-11T12:14:17;25.57;38.00
64599;SHT31;51008;51.504;11.548;2022-07-11T12:19:21;26.07;38.81
64599;SHT31;51008;51.504;11.548;2022-07-11T12:24:26;26.17;37.34
64599;SHT31;51008;51.504;11.548;2022-07-11T12:29:27;25.86;37.55
64599;SHT31;51008;51.504;11.548;2022-07-11T12:39:37;25.41;38.87
64599;SHT31;51008;51.504;11.548;2022-07-11T12:44:39;25.58;37.97
64599;SHT31;51008;51.504;11.548;2022-07-11T12:49:40;25.24;38.24
64599;SHT31;51008;51.504;11.548;2022-07-11T12:54:42;25.28;39.74
64599;SHT31;51008;51.504;11.548;2022-07-11T12:59:43;26.19;38.09
64599;SHT31;51008;51.504;11.548;2022-07-11T13:04:51;25.23;39.79
64599;SHT31;51008;51.504;11.548;2022-07-11T13:09:52;25.13;38.00
64599;SHT31;51008;51.504;11.548;2022-07-11T13:15:00;24.69;38.83
64599;SHT31;51008;51.504;11.548;2022-07-11T13:20:01;24.10;38.71
64599;SHT31;51008;51.504;11.548;2022-07-11T13:25:03;24.33;39.04
64599;SHT31;51008;51.504;11.548;2022-07-11T13:30:05;25.03;38.03
64599;SHT31;51008;51.504;11.548;2022-07-11T13:35:07;25.55;37.47
64599;SHT31;51008;51.504;11.548;2022-07-11T13:40:11;24.31;38.65
64599;SHT31;51008;51.504;11.548;2022-07-11T13:45:13;23.72;40.04
64599;SHT31;51008;51.504;11.548;2022-07-11T13:50:14;23.82;40.13
64599;SHT31;51008;51.504;11.548;2022-07-11T13:55:17;24.44;39.29
64599;SHT31;51008;51.504;11.548;2022-07-11T14:00:20;24.58;39.25
64599;SHT31;51008;51.504;11.548;2022-07-11T14:05:21;24.73;39.86
64599;SHT31;51008;51.504;11.548;2022-07-11T14:10:22;24.92;39.37
64599;SHT31;51008;51.504;11.548;2022-07-11T14:15:23;24.10;39.47
64599;SHT31;51008;51.504;11.548;2022-07-11T14:20:24;24.14;39.97
64599;SHT31;51008;51.504;11.548;2022-07-11T14:25:26;24.63;40.77
64599;SHT31;51008;51.504;11.548;2022-07-11T14:30:27;24.44;42.07
64599;SHT31;51008;51.504;11.548;2022-07-11T14:35:28;24.12;43.12
64599;SHT31;51008;51.504;11.548;2022-07-11T14:40:29;23.61;43.22
64599;SHT31;51008;51.504;11.548;2022-07-11T14:45:30;23.31;43.48
64599;SHT31;51008;51.504;11.548;2022-07-11T14:50:31;23.69;42.84
64599;SHT31;51008;51.504;11.548;2022-07-11T14:55:32;24.23;42.37
64599;SHT31;51008;51.504;11.548;2022-07-11T15:00:34;24.78;42.14
64599;SHT31;51008;51.504;11.548;2022-07-11T15:05:35;24.41;42.48
64599;SHT31;51008;51.504;11.548;2022-07-11T15:10:36;23.13;44.46
64599;SHT31;51008;51.504;11.548;2022-07-11T15:15:37;22.87;46.46
64599;SHT31;51008;51.504;11.548;2022-07-11T15:20:38;22.98;44.56
64599;SHT31;51008;51.504;11.548;2022-07-11T15:25:39;22.58;45.50
64599;SHT31;51008;51.504;11.548;2022-07-11T15:30:40;22.94;44.72
64599;SHT31;51008;51.504;11.548;2022-07-11T15:35:41;23.54;44.97
64599;SHT31;51008;51.504;11.548;2022-07-11T15:40:42;23.02;45.64
64599;SHT31;51008;51.504;11.548;2022-07-11T15:45:43;22.98;45.95
64599;SHT31;51008;51.504;11.548;2022-07-11T15:50:45;22.76;46.18
64599;SHT31;51008;51.504;11.548;2022-07-11T15:55:46;22.41;47.68
64599;SHT31;51008;51.504;11.548;2022-07-11T16:00:47;22.40;47.06
64599;SHT31;51008;51.504;11.548;2022-07-11T16:05:48;22.21;47.73
64599;SHT31;51008;51.504;11.548;2022-07-11T16:10:50;22.08;47.72
64599;SHT31;51008;51.504;11.548;2022-07-11T16:15:51;22.03;47.67
64599;SHT31;51008;51.504;11.548;2022-07-11T16:20:52;22.01;47.49
64599;SHT31;51008;51.504;11.548;2022-07-11T16:25:53;21.92;48.21
64599;SHT31;51008;51.504;11.548;2022-07-11T16:30:54;22.33;47.21
64599;SHT31;51008;51.504;11.548;2022-07-11T16:35:55;22.48;46.45
64599;SHT31;51008;51.504;11.548;2022-07-11T16:40:56;21.89;47.86
64599;SHT31;51008;51.504;11.548;2022-07-11T16:45:57;21.50;48.90
64599;SHT31;51008;51.504;11.548;2022-07-11T16:51:03;21.82;49.20
64599;SHT31;51008;51.504;11.548;2022-07-11T16:56:04;22.21;47.09
64599;SHT31;51008;51.504;11.548;2022-07-11T17:01:07;22.39;46.85
64599;SHT31;51008;51.504;11.548;2022-07-11T17:06:08;22.37;45.00
64599;SHT31;51008;51.504;11.548;2022-07-11T17:11:09;22.45;46.56
64599;SHT31;51008;51.504;11.548;2022-07-11T17:16:10;22.57;46.80
64599;SHT31;51008;51.504;11.548;2022-07-11T17:21:12;22.62;47.12
64599;SHT31;51008;51.504;11.548;2022-07-11T17:26:13;22.39;48.80
64599;SHT31;51008;51.504;11.548;2022-07-11T17:31:14;22.39;50.17
64599;SHT31;51008;51.504;11.548;2022-07-11T17:36:15;22.75;48.53
64599;SHT31;51008;51.504;11.548;2022-07-11T17:41:16;22.99;48.33
64599;SHT31;51008;51.504;11.548;2022-07-11T17:46:17;23.26;48.56
64599;SHT31;51008;51.504;11.548;2022-07-11T17:51:19;23.02;49.39
64599;SHT31;51008;51.504;11.548;2022-07-11T17:56:20;22.53;50.10
64599;SHT31;51008;51.504;11.548;2022-07-11T18:01:21;22.30;52.04
64599;SHT31;51008;51.504;11.548;2022-07-11T18:06:22;22.19;52.93
64599;SHT31;51008;51.504;11.548;2022-07-11T18:11:23;22.08;53.32
64599;SHT31;51008;51.504;11.548;2022-07-11T18:16:24;21.93;53.90
64599;SHT31;51008;51.504;11.548;2022-07-11T18:21:25;22.06;54.34
64599;SHT31;51008;51.504;11.548;2022-07-11T18:26:26;21.82;54.92
64599;SHT31;51008;51.504;11.548;2022-07-11T18:31:28;21.37;55.49
64599;SHT31;51008;51.504;11.548;2022-07-11T18:36:29;21.06;57.54
64599;SHT31;51008;51.504;11.548;2022-07-11T18:41:30;20.81;58.85
64599;SHT31;51008;51.504;11.548;2022-07-11T18:46:32;20.60;60.40
64599;SHT31;51008;51.504;11.548;2022-07-11T18:51:33;20.09;63.48
64599;SHT31;51008;51.504;11.548;2022-07-11T18:56:34;19.79;64.90
64599;SHT31;51008;51.504;11.548;2022-07-11T19:01:35;19.61;65.64
64599;SHT31;51008;51.504;11.548;2022-07-11T19:06:36;19.53;65.74
64599;SHT31;51008;51.504;11.548;2022-07-11T19:11:37;19.26;66.49
64599;SHT31;51008;51.504;11.548;2022-07-11T19:16:42;19.13;66.85
64599;SHT31;51008;51.504;11.548;2022-07-11T19:21:43;18.87;67.07
64599;SHT31;51008;51.504;11.548;2022-07-11T19:26:44;18.78;66.94
64599;SHT31;51008;51.504;11.548;2022-07-11T19:31:45;18.68;67.13
64599;SHT31;51008;51.504;11.548;2022-07-11T19:36:46;18.54;67.04
64599;SHT31;51008;51.504;11.548;2022-07-11T19:41:47;18.33;67.73
64599;SHT31;51008;51.504;11.548;2022-07-11T19:46:49;18.09;68.46
64599;SHT31;51008;51.504;11.548;2022-07-11T19:51:50;17.94;69.18
64599;SHT31;51008;51.504;11.548;2022-07-11T19:56:51;17.88;69.27
64599;SHT31;51008;51.504;11.548;2022-07-11T20:01:52;17.75;69.90
64599;SHT31;51008;51.504;11.548;2022-07-11T20:06:53;17.64;70.86
64599;SHT31;51008;51.504;11.548;2022-07-11T20:11:54;17.54;71.80
64599;SHT31;51008;51.504;11.548;2022-07-11T20:16:56;17.50;72.27
64599;SHT31;51008;51.504;11.548;2022-07-11T20:21:57;17.39;72.91
64599;SHT31;51008;51.504;11.548;2022-07-11T20:26:58;17.33;73.39
64599;SHT31;51008;51.504;11.548;2022-07-11T20:31:59;17.32;73.86
64599;SHT31;51008;51.504;11.548;2022-07-11T20:37:01;17.25;74.15
64599;SHT31;51008;51.504;11.548;2022-07-11T20:42:03;17.18;74.96
64599;SHT31;51008;51.504;11.548;2022-07-11T20:47:04;17.15;75.36
64599;SHT31;51008;51.504;11.548;2022-07-11T20:52:05;17.12;75.66
64599;SHT31;51008;51.504;11.548;2022-07-11T20:57:07;17.12;75.73
64599;SHT31;51008;51.504;11.548;2022-07-11T21:02:08;17.07;76.00
64599;SHT31;51008;51.504;11.548;2022-07-11T21:07:09;16.98;76.19
64599;SHT31;51008;51.504;11.548;2022-07-11T21:12:10;16.98;76.31
64599;SHT31;51008;51.504;11.548;2022-07-11T21:17:11;16.92;76.84
64599;SHT31;51008;51.504;11.548;2022-07-11T21:22:12;16.89;76.89
64599;SHT31;51008;51.504;11.548;2022-07-11T21:27:13;16.80;77.24
64599;SHT31;51008;51.504;11.548;2022-07-11T21:32:14;16.73;77.64
64599;SHT31;51008;51.504;11.548;2022-07-11T21:37:15;16.66;77.90
64599;SHT31;51008;51.504;11.548;2022-07-11T21:42:16;16.57;78.41
64599;SHT31;51008;51.504;11.548;2022-07-11T21:47:17;16.45;78.92
64599;SHT31;51008;51.504;11.548;2022-07-11T21:52:18;16.30;79.47
64599;SHT31;51008;51.504;11.548;2022-07-11T21:57:19;16.13;80.21
64599;SHT31;51008;51.504;11.548;2022-07-11T22:02:20;16.04;80.83
64599;SHT31;51008;51.504;11.548;2022-07-11T22:07:21;15.97;81.16
64599;SHT31;51008;51.504;11.548;2022-07-11T22:12:22;15.87;81.82
64599;SHT31;51008;51.504;11.548;2022-07-11T22:17:23;15.71;83.02
64599;SHT31;51008;51.504;11.548;2022-07-11T22:22:24;15.67;83.52
64599;SHT31;51008;51.504;11.548;2022-07-11T22:27:25;15.59;84.30
64599;SHT31;51008;51.504;11.548;2022-07-11T22:32:26;15.60;84.86
64599;SHT31;51008;51.504;11.548;2022-07-11T22:37:27;15.53;85.06
64599;SHT31;51008;51.504;11.548;2022-07-11T22:42:28;15.46;85.50
64599;SHT31;51008;51.504;11.548;2022-07-11T22:47:29;15.40;86.24
64599;SHT31;51008;51.504;11.548;2022-07-11T22:52:30;15.29;86.60
64599;SHT31;51008;51.504;11.548;2022-07-11T22:57:31;15.28;86.61
64599;SHT31;51008;51.504;11.548;2022-07-11T23:02:32;15.24;87.13
64599;SHT31;51008;51.504;11.548;2022-07-11T23:07:33;15.18;87.10
64599;SHT31;51008;51.504;11.548;2022-07-11T23:12:35;15.16;87.26
64599;SHT31;51008;51.504;11.548;2022-07-11T23:17:36;15.07;87.62
64599;SHT31;51008;51.504;11.548;2022-07-11T23:22:38;15.04;88.17
64599;SHT31;51008;51.504;11.548;2022-07-11T23:27:39;14.99;88.21
64599;SHT31;51008;51.504;11.548;2022-07-11T23:32:40;14.91;88.67
64599;SHT31;51008;51.504;11.548;2022-07-11T23:37:41;14.91;88.71
64599;SHT31;51008;51.504;11.548;2022-07-11T23:42:42;14.90;89.00
64599;SHT31;51008;51.504;11.548;2022-07-11T23:47:43;14.90;89.24
64599;SHT31;51008;51.504;11.548;2022-07-11T23:52:44;14.85;89.45
64599;SHT31;51008;51.504;11.548;2022-07-11T23:57:48;14.83;89.34
